Startpagina
METAR-TAF:

METAR-TAF

Vliegvelden :

Las Vegas, Nevada, Verenigde Staten

McCarran International Airport

breedte: 36-04-44N, lengte: 115-09-19W, hoogte: 663 m

Actueel weer

Dit bericht is 46 minuten geleden gemaakt, om 05:56 UTC
Wind 3 kt uit het westzuidwesten
Temperatuur 29°C
Vochtigheid 12%
Druk 1014 hPa
Zicht: 16.1 km
Weinig wolken op 12000 ft

METAR: KLAS 280556Z 24003KT 10SM FEW120 29/M03 A2994 RMK AO2 SLP114 T02891028 10328 20289 52009

Tijdstip: 23:42 (06:42 UTC)

Verwachting

Dit bericht is 1 uur en het 22 minuten geleden gemaakt, om 05:20 UTC
Verwachting geldig van 28 om 06 UTC tot 29 om 06 UTC
Wind 5 kt uit variabele richting
Zicht: 10 km
Onbewolkt
Van 28 om 1500 UTC
Wind 8 kt uit het noordoosten
Zicht: 10 km
Onbewolkt
Van 29 om 0400 UTC
Wind 6 kt uit het westzuidwesten
Zicht: 10 km
Onbewolkt

TAF: KLAS 280520Z 2806/2906 VRB05KT P6SM SKC FM281500 05008KT P6SM SKC FM290400 25006KT P6SM SKC

Waarnemingen en weersverwachtingen van meer dan 4000 vliegvelden (METAR en TAF).

De beschikbare stations zijn de gele en rode punten op de kaart.

Ga met uw muis naar het station om de naam te zien.

Klik dan om waarnemingen en weersverwachtingen te zien.

kaart wijzigen: klik op de groene knoppen met een zwart kruis om in te zoomen, op de groene knop met een streepje om uit te zoomen of op de groene pijlen voor aangrenzende kaarten.


METAR-TAF: